Terminal Aerodrome Forecast
Issued by NWS Quad Cities IA IL

Home | Current Version | Previous Version | Graphics & Text | Print | Product List | Glossary On
Versions: 1 2 3 4 5 6 7 8 9 10 11 12 13 14 15 16 17
760
FTUS43 KDVN 050537
TAFMLI
TAF
KMLI 050537Z 0506/0606 31013KT P6SM SCT015 OVC025
      TEMPO 0506/0510 BKN015
     FM051100 30007KT P6SM SCT250
     FM051600 21004KT P6SM BKN150
     FM052300 17006KT P6SM OVC060
     FM060300 20010KT P6SM VCSH OVC035=

USA.gov is the U.S. government's official web portal to all federal, state and local government web resources and services.